Time;durP1;ratioP1;P1;durP2;ratioP2;P2;SDS_P1;SDS_P2;PMS_P1;PMS_P2;Temp;Humidity;BMP_temperature;BMP_pressure;BME280_temperature;BME280_humidity;BME280_pressure;Samples;Min_cycle;Max_cycle;Signal;HPM_P1;HPM_P2
2023/08/23 00:01:12;;;;;;;15.80;14.20;;;27.40;99.90;;;;;;4820233;29;20305;-85
2023/08/23 00:03:38;;;;;;;14.47;13.07;;;27.40;99.90;;;;;;4821199;29;20232;-86
2023/08/23 00:06:03;;;;;;;14.77;13.40;;;27.40;99.90;;;;;;4819992;29;20437;-86
2023/08/23 00:08:29;;;;;;;17.20;13.00;;;27.40;99.90;;;;;;4821638;29;20184;-80
2023/08/23 00:10:55;;;;;;;14.93;13.33;;;27.30;99.90;;;;;;4819821;29;20570;-86
2023/08/23 00:13:23;;;;;;;17.73;13.47;;;27.30;99.90;;;;;;4821033;29;20671;-85
2023/08/23 00:15:50;;;;;;;14.93;13.50;;;27.20;99.90;;;;;;4820340;29;20225;-80
2023/08/23 00:18:16;;;;;;;14.77;13.30;;;27.20;99.90;;;;;;4821145;29;21073;-80
2023/08/23 00:20:41;;;;;;;15.30;13.47;;;27.10;99.90;;;;;;4819883;29;20571;-81
2023/08/23 00:23:07;;;;;;;17.90;14.60;;;27.10;99.90;;;;;;4819750;29;20193;-83
2023/08/23 00:25:32;;;;;;;14.30;12.97;;;27.00;99.90;;;;;;4819961;29;20704;-80
2023/08/23 00:27:58;;;;;;;14.77;13.30;;;27.00;99.90;;;;;;4819546;29;20238;-80
2023/08/23 00:30:24;;;;;;;14.03;12.70;;;27.00;99.90;;;;;;4821260;29;20282;-86
2023/08/23 00:32:49;;;;;;;19.70;12.97;;;26.90;99.90;;;;;;4820666;29;20194;-80
2023/08/23 00:35:15;;;;;;;15.43;13.27;;;26.90;99.90;;;;;;4819978;29;20198;-80
2023/08/23 00:37:41;;;;;;;14.30;13.00;;;26.80;99.90;;;;;;4819289;29;20192;-81
2023/08/23 00:40:10;;;;;;;13.87;12.57;;;26.80;99.90;;;;;;4819556;29;20236;-81
2023/08/23 00:42:36;;;;;;;15.80;14.27;;;26.80;99.90;;;;;;4820597;29;20174;-86
2023/08/23 00:45:02;;;;;;;16.77;15.07;;;26.80;99.90;;;;;;4819202;29;20556;-85
2023/08/23 00:47:28;;;;;;;15.83;13.87;;;26.80;99.90;;;;;;4820692;29;20823;-85
2023/08/23 00:49:56;;;;;;;15.07;13.50;;;26.80;99.90;;;;;;4820694;29;20445;-86
2023/08/23 00:52:21;;;;;;;14.03;12.73;;;26.80;99.90;;;;;;4820532;29;20422;-85
2023/08/23 00:54:47;;;;;;;14.97;13.53;;;26.80;99.90;;;;;;4820225;29;20463;-85
2023/08/23 00:57:14;;;;;;;16.23;14.43;;;26.80;99.90;;;;;;4820633;29;20185;-80
2023/08/23 00:59:41;;;;;;;15.10;13.57;;;26.70;99.90;;;;;;4819185;29;20501;-85
2023/08/23 01:02:08;;;;;;;15.90;13.80;;;26.70;99.90;;;;;;4819169;29;20428;-85
2023/08/23 01:04:33;;;;;;;15.30;13.83;;;26.60;99.90;;;;;;4819306;29;20877;-85
2023/08/23 01:07:16;;;;;;;14.40;12.90;;;26.60;99.90;;;;;;4820086;29;20505;-80
2023/08/23 01:10:32;;;;;;;14.60;13.20;;;26.60;99.90;;;;;;4819111;29;20292;-86
2023/08/23 01:13:02;;;;;;;17.33;14.13;;;26.60;99.90;;;;;;4778266;29;20948;-86
2023/08/23 01:15:30;;;;;;;14.50;12.90;;;26.60;99.90;;;;;;4819271;29;20461;-80
2023/08/23 01:17:57;;;;;;;14.33;12.30;;;26.60;99.90;;;;;;4820142;29;20414;-86
2023/08/23 01:20:22;;;;;;;15.50;14.00;;;26.50;99.90;;;;;;4819132;29;20497;-80
2023/08/23 01:22:53;;;;;;;15.97;13.80;;;26.50;99.90;;;;;;4818473;29;20448;-84
2023/08/23 01:25:19;;;;;;;15.30;13.80;;;26.50;99.90;;;;;;4820650;29;20223;-86
2023/08/23 01:27:44;;;;;;;16.03;12.80;;;26.40;99.90;;;;;;4818516;29;20434;-80
2023/08/23 01:30:12;;;;;;;24.07;14.40;;;26.40;99.90;;;;;;4820566;29;20668;-80
2023/08/23 01:32:43;;;;;;;14.20;12.80;;;26.40;99.90;;;;;;4818736;29;20206;-79
2023/08/23 01:35:17;;;;;;;14.60;13.17;;;26.40;99.90;;;;;;4818300;29;20821;-80
2023/08/23 01:37:45;;;;;;;15.70;13.80;;;26.40;99.90;;;;;;4819423;29;20402;-80
2023/08/23 01:40:12;;;;;;;20.80;13.70;;;26.40;99.90;;;;;;4820330;29;20503;-85
2023/08/23 01:42:39;;;;;;;17.00;13.67;;;26.40;99.90;;;;;;4819872;29;20841;-85
2023/08/23 01:45:07;;;;;;;14.93;13.40;;;26.30;99.90;;;;;;4820013;29;20560;-85
2023/08/23 01:47:32;;;;;;;14.83;13.27;;;26.30;99.90;;;;;;4819733;29;20418;-80
2023/08/23 01:49:58;;;;;;;17.40;14.10;;;26.30;99.90;;;;;;4818613;29;20465;-86
2023/08/23 01:52:24;;;;;;;15.33;13.77;;;26.30;99.90;;;;;;4819652;29;20187;-80
2023/08/23 01:54:49;;;;;;;16.07;14.53;;;26.30;99.90;;;;;;4817952;29;20212;-80
2023/08/23 01:57:15;;;;;;;16.87;15.00;;;26.20;99.90;;;;;;4817513;29;20186;-85
2023/08/23 01:59:40;;;;;;;18.20;15.43;;;26.20;99.90;;;;;;4818419;29;20823;-81
2023/08/23 02:02:06;;;;;;;19.60;14.63;;;26.20;99.90;;;;;;4818302;29;20435;-85
2023/08/23 02:04:32;;;;;;;16.07;14.40;;;26.20;99.90;;;;;;4818109;29;20213;-80
2023/08/23 02:06:57;;;;;;;16.17;14.60;;;26.20;99.90;;;;;;4819561;29;20182;-80
2023/08/23 02:09:23;;;;;;;16.70;15.10;;;26.20;99.90;;;;;;4818376;29;20197;-80
2023/08/23 02:11:49;;;;;;;16.90;15.13;;;26.20;99.90;;;;;;4819101;29;20182;-83
2023/08/23 02:14:14;;;;;;;15.97;14.37;;;26.10;99.90;;;;;;4820197;29;20178;-86
2023/08/23 02:16:40;;;;;;;17.37;14.40;;;26.10;99.90;;;;;;4818161;29;20572;-82
2023/08/23 02:19:06;;;;;;;21.40;14.90;;;26.10;99.90;;;;;;4817883;29;20455;-80
2023/08/23 02:21:31;;;;;;;16.37;14.77;;;26.10;99.90;;;;;;4818194;29;20740;-80
2023/08/23 02:23:57;;;;;;;29.63;16.50;;;26.10;99.90;;;;;;4817993;29;20194;-81
2023/08/23 02:26:22;;;;;;;19.47;14.83;;;26.10;99.90;;;;;;4818569;29;20845;-80
2023/08/23 02:28:48;;;;;;;17.90;15.40;;;26.10;99.90;;;;;;4818938;29;20193;-80
2023/08/23 02:31:14;;;;;;;17.73;15.83;;;26.10;99.90;;;;;;4819398;29;20226;-86
2023/08/23 02:33:39;;;;;;;16.07;14.47;;;26.10;99.90;;;;;;4819167;29;20699;-80
2023/08/23 02:36:05;;;;;;;17.67;15.33;;;26.10;99.90;;;;;;4817014;29;20205;-86
2023/08/23 02:38:31;;;;;;;17.40;15.60;;;26.10;99.90;;;;;;4817479;29;20553;-80
2023/08/23 02:41:40;;;;;;;17.40;15.27;;;26.10;99.90;;;;;;4819435;29;20293;-80
2023/08/23 02:44:06;;;;;;;17.53;15.70;;;26.10;99.90;;;;;;4817829;29;20652;-80
2023/08/23 02:46:31;;;;;;;17.37;15.60;;;26.00;99.90;;;;;;4819052;29;20693;-80
2023/08/23 02:48:57;;;;;;;18.20;16.30;;;26.00;99.90;;;;;;4818760;29;20185;-80
2023/08/23 02:51:22;;;;;;;18.87;16.87;;;25.90;99.90;;;;;;4817758;29;20652;-86
2023/08/23 02:53:48;;;;;;;16.97;15.20;;;25.90;99.90;;;;;;4818668;29;20539;-80
2023/08/23 02:56:14;;;;;;;17.77;15.93;;;25.80;99.90;;;;;;4817346;29;20336;-80
2023/08/23 02:58:39;;;;;;;16.70;15.20;;;25.80;99.90;;;;;;4818591;29;20198;-86
2023/08/23 03:01:05;;;;;;;17.80;16.07;;;25.80;99.90;;;;;;4817564;29;20362;-86
2023/08/23 03:03:31;;;;;;;18.13;16.40;;;25.80;99.90;;;;;;4817625;29;20486;-84
2023/08/23 03:05:57;;;;;;;17.63;15.93;;;25.80;99.90;;;;;;4817573;29;20518;-86
2023/08/23 03:08:24;;;;;;;18.37;16.00;;;25.80;99.90;;;;;;4817923;29;20385;-80
2023/08/23 03:10:50;;;;;;;18.00;16.00;;;25.80;99.90;;;;;;4817506;29;20517;-80
2023/08/23 03:13:16;;;;;;;17.53;15.93;;;25.80;99.90;;;;;;4817269;29;20535;-80
2023/08/23 03:15:42;;;;;;;17.73;16.03;;;25.80;99.90;;;;;;4817275;29;20214;-86
2023/08/23 03:18:07;;;;;;;18.63;16.70;;;25.90;99.90;;;;;;4817312;29;20425;-80
2023/08/23 03:20:33;;;;;;;19.90;17.90;;;25.90;99.90;;;;;;4817416;29;20241;-80
2023/08/23 03:22:59;;;;;;;21.07;16.70;;;26.00;99.90;;;;;;4817035;29;20201;-83
2023/08/23 03:25:25;;;;;;;18.60;16.70;;;26.00;99.90;;;;;;4818862;29;20197;-86
2023/08/23 03:27:54;;;;;;;18.73;16.80;;;26.00;99.90;;;;;;4818417;29;20429;-80
2023/08/23 03:30:20;;;;;;;21.03;16.87;;;25.90;99.90;;;;;;4817343;29;20987;-80
2023/08/23 03:32:45;;;;;;;18.33;16.53;;;25.90;99.90;;;;;;4816827;29;20591;-84
2023/08/23 03:35:11;;;;;;;20.27;17.07;;;25.90;99.90;;;;;;4816592;29;20445;-80
2023/08/23 03:37:37;;;;;;;18.07;16.03;;;25.90;99.90;;;;;;4816375;29;20194;-80
2023/08/23 03:40:03;;;;;;;20.00;18.00;;;25.80;99.90;;;;;;4817062;29;20600;-80
2023/08/23 03:42:29;;;;;;;19.03;17.00;;;25.80;99.90;;;;;;4816899;29;20696;-85
2023/08/23 03:44:55;;;;;;;18.60;16.80;;;25.80;99.90;;;;;;4818489;29;20437;-85
2023/08/23 03:47:20;;;;;;;21.83;17.50;;;25.80;99.90;;;;;;4832105;29;20189;-84
2023/08/23 03:49:47;;;;;;;18.80;16.87;;;25.80;99.90;;;;;;4850210;29;20674;-80
2023/08/23 03:52:13;;;;;;;25.03;18.50;;;25.70;99.90;;;;;;4850678;29;20288;-86
2023/08/23 03:54:39;;;;;;;24.40;19.07;;;25.80;99.90;;;;;;4850115;29;20535;-80
2023/08/23 03:57:05;;;;;;;20.17;18.10;;;25.80;99.90;;;;;;4850226;29;20193;-80
2023/08/23 03:59:30;;;;;;;21.90;17.77;;;25.80;99.90;;;;;;4850481;29;20229;-85
2023/08/23 04:01:56;;;;;;;20.27;18.17;;;25.80;99.90;;;;;;4834698;29;20449;-80
2023/08/23 04:04:22;;;;;;;21.13;17.33;;;25.80;99.90;;;;;;4836266;29;20192;-86
2023/08/23 04:06:48;;;;;;;20.10;18.00;;;25.80;99.90;;;;;;4835970;29;20395;-79
2023/08/23 04:09:13;;;;;;;19.63;17.60;;;25.80;99.90;;;;;;4850706;29;20216;-80
2023/08/23 04:11:39;;;;;;;19.80;17.47;;;25.80;99.90;;;;;;4850157;29;20205;-85
2023/08/23 04:14:05;;;;;;;19.83;17.73;;;25.80;99.90;;;;;;4846300;29;20186;-86
2023/08/23 04:16:30;;;;;;;20.30;18.20;;;25.80;99.90;;;;;;4817365;29;20213;-85
2023/08/23 04:18:56;;;;;;;28.20;18.73;;;25.90;99.90;;;;;;4812550;29;20216;-79
2023/08/23 04:21:22;;;;;;;20.43;17.97;;;25.90;99.90;;;;;;4813651;29;20205;-85
2023/08/23 04:23:47;;;;;;;22.20;20.00;;;25.90;99.90;;;;;;4819210;29;20431;-79
2023/08/23 04:26:13;;;;;;;20.30;18.30;;;26.00;99.90;;;;;;4816305;29;20752;-79
2023/08/23 04:28:39;;;;;;;22.47;19.40;;;26.00;99.90;;;;;;4819299;29;20197;-86
2023/08/23 04:31:04;;;;;;;19.57;17.53;;;26.00;99.90;;;;;;4822392;29;20480;-79
2023/08/23 04:33:30;;;;;;;18.70;16.70;;;26.00;99.90;;;;;;4819559;29;20182;-79
2023/08/23 04:35:56;;;;;;;24.03;18.33;;;26.00;99.90;;;;;;4818157;29;20263;-79
2023/08/23 04:38:22;;;;;;;20.37;18.37;;;26.00;99.90;;;;;;4818205;29;20182;-80
2023/08/23 04:40:47;;;;;;;19.87;17.07;;;26.00;99.90;;;;;;4818486;29;20399;-86
2023/08/23 04:43:13;;;;;;;20.40;17.50;;;26.00;99.90;;;;;;4818758;29;20329;-86
2023/08/23 04:45:39;;;;;;;21.53;18.80;;;25.90;99.90;;;;;;4819641;29;20584;-86
2023/08/23 04:48:05;;;;;;;22.53;18.30;;;25.90;99.90;;;;;;4819200;29;20182;-79
2023/08/23 04:50:33;;;;;;;22.63;17.90;;;25.90;99.90;;;;;;4817937;29;20490;-86
2023/08/23 04:52:59;;;;;;;20.60;18.40;;;25.90;99.90;;;;;;4818446;29;20425;-79
2023/08/23 04:55:25;;;;;;;21.50;17.83;;;25.90;99.90;;;;;;4813953;29;20497;-86
2023/08/23 04:57:51;;;;;;;18.80;16.90;;;26.00;99.90;;;;;;4819408;29;20506;-79
2023/08/23 05:00:17;;;;;;;19.47;17.33;;;26.00;99.90;;;;;;4820476;29;20488;-86
2023/08/23 05:02:42;;;;;;;19.80;17.70;;;26.00;99.90;;;;;;4818508;29;20200;-79
2023/08/23 05:05:08;;;;;;;18.90;16.50;;;26.00;99.90;;;;;;4820337;29;20214;-87
2023/08/23 05:07:35;;;;;;;18.93;16.90;;;26.00;99.90;;;;;;4817585;29;20190;-79
2023/08/23 05:10:01;;;;;;;20.00;16.90;;;26.10;99.90;;;;;;4816164;29;20992;-79
2023/08/23 05:12:26;;;;;;;20.43;18.23;;;26.20;99.90;;;;;;4816359;29;20489;-86
2023/08/23 05:14:52;;;;;;;23.73;17.83;;;26.20;99.90;;;;;;4818815;29;20587;-79
2023/08/23 05:17:18;;;;;;;20.90;16.93;;;26.30;99.90;;;;;;4816440;29;20434;-80
2023/08/23 05:19:44;;;;;;;18.63;16.50;;;26.40;99.90;;;;;;4825780;29;20316;-87
2023/08/23 05:22:10;;;;;;;56.30;42.97;;;26.50;99.90;;;;;;4836213;29;20566;-79
2023/08/23 05:24:36;;;;;;;37.47;28.73;;;26.50;99.90;;;;;;4817799;29;20362;-80
2023/08/23 05:27:02;;;;;;;19.80;17.77;;;26.60;99.90;;;;;;4816769;29;20521;-83
2023/08/23 05:29:27;;;;;;;19.63;17.63;;;26.70;99.90;;;;;;4817025;29;20193;-79
2023/08/23 05:31:53;;;;;;;21.50;18.80;;;26.70;99.90;;;;;;4816083;29;21086;-84
2023/08/23 05:34:19;;;;;;;18.47;16.37;;;26.80;99.90;;;;;;4815569;29;20193;-86
2023/08/23 05:36:44;;;;;;;17.23;15.43;;;26.90;99.90;;;;;;4816318;29;20193;-80
2023/08/23 05:39:10;;;;;;;20.17;16.30;;;26.90;99.90;;;;;;4833169;29;20215;-86
2023/08/23 05:41:36;;;;;;;17.63;15.67;;;27.00;99.90;;;;;;4818255;29;20668;-80
2023/08/23 05:44:02;;;;;;;17.77;15.90;;;27.10;99.90;;;;;;4816535;29;20425;-80
2023/08/23 05:46:27;;;;;;;21.93;16.40;;;27.10;99.90;;;;;;4817512;29;20692;-87
2023/08/23 05:48:53;;;;;;;17.47;15.67;;;27.20;99.90;;;;;;4817688;29;20349;-86
2023/08/23 05:51:19;;;;;;;18.30;16.40;;;27.30;99.90;;;;;;4818043;29;20741;-86
2023/08/23 05:53:44;;;;;;;17.73;16.00;;;27.40;99.90;;;;;;4819014;29;20246;-80
2023/08/23 05:56:10;;;;;;;18.50;16.67;;;27.40;99.90;;;;;;4816763;29;20253;-80
2023/08/23 05:58:36;;;;;;;18.47;16.57;;;27.50;99.90;;;;;;4818696;29;20191;-86
2023/08/23 06:01:01;;;;;;;17.27;15.47;;;27.60;99.90;;;;;;4818681;29;20785;-81
2023/08/23 06:03:27;;;;;;;17.00;15.30;;;27.70;99.90;;;;;;4816918;29;20621;-85
2023/08/23 06:05:55;;;;;;;20.13;15.87;;;27.70;99.90;;;;;;4812636;29;20290;-80
2023/08/23 06:08:21;;;;;;;16.60;14.93;;;27.80;99.90;;;;;;4810252;29;20673;-81
2023/08/23 06:10:47;;;;;;;15.87;14.37;;;27.90;99.90;;;;;;4817398;29;20703;-86
2023/08/23 06:13:13;;;;;;;16.50;14.90;;;27.90;99.90;;;;;;4817119;29;20293;-81
2023/08/23 06:15:39;;;;;;;17.73;16.03;;;28.00;99.90;;;;;;4817314;29;20529;-86
2023/08/23 06:18:04;;;;;;;16.93;15.43;;;28.10;99.90;;;;;;4833033;29;20248;-85
2023/08/23 06:20:30;;;;;;;19.20;14.27;;;28.20;99.90;;;;;;4819861;29;20226;-86
2023/08/23 06:22:57;;;;;;;15.53;13.83;;;28.20;99.90;;;;;;4820365;29;20448;-81
2023/08/23 06:25:22;;;;;;;17.73;14.47;;;28.40;99.90;;;;;;4833755;29;20682;-85
2023/08/23 06:27:48;;;;;;;16.63;14.93;;;28.40;99.90;;;;;;4817236;29;20415;-85
2023/08/23 06:30:17;;;;;;;21.10;15.37;;;28.50;99.90;;;;;;4831728;29;20213;-80
2023/08/23 06:32:46;;;;;;;17.93;15.27;;;28.60;99.90;;;;;;4816342;29;20208;-80
2023/08/23 06:35:13;;;;;;;15.80;14.40;;;28.70;99.90;;;;;;4826218;29;20887;-80
2023/08/23 06:37:40;;;;;;;17.20;14.10;;;28.80;99.90;;;;;;4813829;29;20577;-79
2023/08/23 06:40:08;;;;;;;15.87;14.20;;;28.90;99.90;;;;;;4818626;29;20919;-86
2023/08/23 06:42:34;;;;;;;15.87;13.43;;;28.90;99.90;;;;;;4817699;29;20425;-79
2023/08/23 06:45:00;;;;;;;16.27;13.50;;;29.00;99.90;;;;;;4814538;29;20834;-86
2023/08/23 06:47:25;;;;;;;16.00;14.47;;;29.10;99.90;;;;;;4828857;29;20423;-79
2023/08/23 06:49:51;;;;;;;15.73;14.23;;;29.20;99.90;;;;;;4814891;29;20265;-85
2023/08/23 06:52:17;;;;;;;15.13;13.63;;;29.20;99.90;;;;;;4816166;29;20178;-82
2023/08/23 06:54:42;;;;;;;13.57;12.17;;;29.30;99.90;;;;;;4813574;29;20207;-85
2023/08/23 06:57:08;;;;;;;15.20;13.70;;;29.30;99.90;;;;;;4812716;29;20276;-80
2023/08/23 06:59:34;;;;;;;15.27;13.77;;;29.40;99.90;;;;;;4814359;29;20503;-86
2023/08/23 07:02:00;;;;;;;15.47;13.90;;;29.50;99.90;;;;;;4817955;29;20268;-80
2023/08/23 07:04:25;;;;;;;13.87;12.60;;;29.50;99.90;;;;;;4821627;29;20237;-85
2023/08/23 07:06:51;;;;;;;18.10;13.47;;;29.50;99.90;;;;;;4834017;29;20264;-80
2023/08/23 07:09:16;;;;;;;14.57;13.07;;;29.50;99.90;;;;;;4826824;29;20188;-86
2023/08/23 07:11:42;;;;;;;14.50;12.60;;;29.70;99.90;;;;;;4816392;29;20191;-79
2023/08/23 07:14:09;;;;;;;15.20;12.97;;;29.70;99.90;;;;;;4817647;29;20203;-85
2023/08/23 07:16:35;;;;;;;13.87;12.47;;;29.70;99.90;;;;;;4809598;29;20212;-80
2023/08/23 07:19:03;;;;;;;13.03;11.63;;;29.80;99.90;;;;;;4812974;29;20536;-86
2023/08/23 07:21:29;;;;;;;15.37;12.20;;;29.80;99.90;;;;;;4829879;29;21202;-80
2023/08/23 07:23:55;;;;;;;12.60;11.50;;;29.80;99.90;;;;;;4813296;29;20456;-80
2023/08/23 07:26:21;;;;;;;12.40;11.23;;;29.90;99.90;;;;;;4817333;29;20467;-80
2023/08/23 07:28:47;;;;;;;13.30;12.10;;;29.90;99.90;;;;;;4817261;29;20485;-85
2023/08/23 07:31:12;;;;;;;12.50;11.50;;;30.00;99.90;;;;;;4815144;29;20987;-80
2023/08/23 07:33:38;;;;;;;13.63;12.03;;;30.10;99.90;;;;;;4816042;29;20196;-80
2023/08/23 07:36:04;;;;;;;12.83;11.57;;;30.10;99.90;;;;;;4830841;29;20474;-80
2023/08/23 07:38:32;;;;;;;13.30;11.90;;;30.10;99.90;;;;;;4813480;29;20236;-80
2023/08/23 07:41:03;;;;;;;11.93;10.83;;;30.20;99.90;;;;;;4815251;29;20495;-85
2023/08/23 07:43:29;;;;;;;12.80;11.20;;;30.40;99.90;;;;;;4816859;29;20416;-80
2023/08/23 07:45:56;;;;;;;13.50;12.20;;;30.40;99.90;;;;;;4815745;29;20511;-80
2023/08/23 07:48:26;;;;;;;13.17;11.87;;;30.40;99.90;;;;;;4814328;29;20964;-84
2023/08/23 07:50:57;;;;;;;12.23;11.03;;;30.60;99.90;;;;;;4815465;29;20452;-86
2023/08/23 07:53:23;;;;;;;12.33;11.13;;;30.60;99.90;;;;;;4829699;29;20438;-86
2023/08/23 07:55:49;;;;;;;16.80;14.47;;;30.70;99.90;;;;;;4831666;29;20565;-86
2023/08/23 07:58:15;;;;;;;23.03;19.27;;;30.70;99.90;;;;;;4832767;29;20470;-86
2023/08/23 08:00:41;;;;;;;14.90;13.47;;;30.80;99.90;;;;;;4816571;29;20265;-79
2023/08/23 08:03:08;;;;;;;12.40;11.20;;;30.80;99.90;;;;;;4817995;29;20186;-80
2023/08/23 08:05:34;;;;;;;10.73;9.70;;;30.80;99.90;;;;;;4816854;29;20473;-79
2023/08/23 08:08:02;;;;;;;12.40;10.43;;;30.90;99.90;;;;;;4817921;29;21019;-80
2023/08/23 08:10:28;;;;;;;12.50;10.27;;;31.00;99.90;;;;;;4818234;29;20237;-79
2023/08/23 08:12:54;;;;;;;11.07;10.07;;;31.10;99.90;;;;;;4820294;29;20604;-85
2023/08/23 08:15:19;;;;;;;11.13;10.13;;;31.00;99.90;;;;;;4819908;29;20469;-86
2023/08/23 08:17:46;;;;;;;11.00;10.00;;;31.00;99.90;;;;;;4820469;29;20192;-80
2023/08/23 08:20:12;;;;;;;11.90;10.20;;;31.30;99.90;;;;;;4817725;29;20715;-80
2023/08/23 08:22:38;;;;;;;12.10;11.10;;;31.50;99.90;;;;;;4816179;29;20541;-80
2023/08/23 08:25:05;;;;;;;10.77;9.80;;;31.70;99.90;;;;;;4814048;29;20559;-80
2023/08/23 08:27:30;;;;;;;11.33;10.17;;;31.90;99.90;;;;;;4819462;29;20751;-86
2023/08/23 08:29:56;;;;;;;11.17;10.20;;;32.00;99.90;;;;;;4817169;29;20553;-79
2023/08/23 08:32:22;;;;;;;10.23;9.33;;;32.10;99.90;;;;;;4806840;29;20201;-80
2023/08/23 08:34:47;;;;;;;11.30;9.60;;;32.20;99.90;;;;;;4815286;29;20237;-86
2023/08/23 08:37:14;;;;;;;11.33;10.10;;;31.90;99.90;;;;;;4818135;29;20193;-86
2023/08/23 08:39:40;;;;;;;10.90;9.73;;;32.00;99.90;;;;;;4814104;29;20236;-81
2023/08/23 08:42:06;;;;;;;11.80;10.70;;;32.20;99.90;;;;;;4813936;29;20594;-81
2023/08/23 08:44:32;;;;;;;10.50;9.50;;;32.40;99.90;;;;;;4834652;29;20198;-80
2023/08/23 08:46:58;;;;;;;11.80;9.60;;;32.50;99.90;;;;;;4819396;29;20520;-80
2023/08/23 08:49:23;;;;;;;11.13;9.93;;;32.70;99.90;;;;;;4819374;29;20458;-86
2023/08/23 08:51:50;;;;;;;12.40;10.43;;;32.80;99.90;;;;;;4817968;29;20613;-83
2023/08/23 08:54:17;;;;;;;11.77;10.63;;;33.00;99.90;;;;;;4817780;29;20182;-86
2023/08/23 08:56:51;;;;;;;11.60;10.57;;;33.20;99.90;;;;;;4798572;29;20695;-84
2023/08/23 08:59:17;;;;;;;11.37;10.37;;;33.50;99.90;;;;;;4819015;29;20873;-86
2023/08/23 09:01:45;;;;;;;10.73;9.87;;;33.90;99.90;;;;;;4816498;29;20414;-78
2023/08/23 09:04:11;;;;;;;16.40;14.40;;;34.10;99.90;;;;;;4815094;29;20417;-86
2023/08/23 09:06:37;;;;;;;10.53;9.53;;;34.40;99.90;;;;;;4818331;29;20437;-78
2023/08/23 09:09:04;;;;;;;11.80;10.80;;;34.60;99.90;;;;;;4818134;29;20968;-86
2023/08/23 09:11:33;;;;;;;11.87;10.30;;;34.70;99.30;;;;;;4812515;29;20256;-85
2023/08/23 09:13:59;;;;;;;11.03;10.13;;;34.70;99.40;;;;;;4824544;29;20831;-86
2023/08/23 09:16:26;;;;;;;11.43;10.43;;;34.60;99.40;;;;;;4818385;29;20767;-78
2023/08/23 09:18:52;;;;;;;10.90;10.07;;;34.40;99.60;;;;;;4818377;29;20228;-84
2023/08/23 09:21:24;;;;;;;11.20;10.03;;;34.40;99.70;;;;;;4817815;29;20480;-84
2023/08/23 09:23:50;;;;;;;9.80;9.10;;;34.50;99.60;;;;;;4817741;29;20452;-78
2023/08/23 09:26:16;;;;;;;12.63;9.60;;;34.40;99.50;;;;;;4817860;29;20994;-78
2023/08/23 09:28:42;;;;;;;17.73;10.83;;;34.40;99.40;;;;;;4818533;29;20422;-78
2023/08/23 09:31:14;;;;;;;11.60;10.50;;;34.50;98.30;;;;;;4816778;29;20218;-78
2023/08/23 09:33:40;;;;;;;10.97;10.03;;;34.50;98.60;;;;;;4818021;29;20484;-78
2023/08/23 09:36:06;;;;;;;11.30;10.20;;;34.60;98.50;;;;;;4817715;29;21167;-84
2023/08/23 09:38:32;;;;;;;11.50;10.60;;;34.60;97.80;;;;;;4817229;29;20198;-78
2023/08/23 09:40:57;;;;;;;11.03;10.13;;;34.70;97.40;;;;;;4815532;29;20264;-85
2023/08/23 09:43:24;;;;;;;11.00;10.10;;;34.70;97.70;;;;;;4820936;29;20426;-77
2023/08/23 09:45:50;;;;;;;10.00;9.13;;;34.80;97.50;;;;;;4818620;29;20651;-78
2023/08/23 09:48:18;;;;;;;10.60;9.70;;;34.80;97.40;;;;;;4817471;29;20448;-85
2023/08/23 09:50:46;;;;;;;10.67;9.67;;;34.80;97.20;;;;;;4831640;29;20457;-84
2023/08/23 09:53:23;;;;;;;10.23;9.33;;;34.80;97.10;;;;;;4817453;29;20803;-84
2023/08/23 09:55:50;;;;;;;11.70;10.60;;;35.00;96.50;;;;;;4818997;29;20832;-78
2023/08/23 09:58:16;;;;;;;11.77;10.80;;;35.10;96.20;;;;;;4821210;29;20448;-78
2023/08/23 10:00:46;;;;;;;11.67;10.57;;;35.10;96.30;;;;;;4815998;29;20493;-85
2023/08/23 10:03:12;;;;;;;11.17;10.10;;;35.10;95.70;;;;;;4813025;29;20182;-83
2023/08/23 10:05:39;;;;;;;11.33;10.03;;;35.10;95.20;;;;;;4812260;29;20843;-84
2023/08/23 10:08:05;;;;;;;10.60;9.60;;;35.20;95.60;;;;;;4825018;29;20883;-83
2023/08/23 10:10:32;;;;;;;11.37;10.17;;;35.20;95.70;;;;;;4814498;29;20762;-78
2023/08/23 10:13:06;;;;;;;11.10;10.00;;;35.30;95.90;;;;;;4809337;29;20430;-78
2023/08/23 10:15:37;;;;;;;10.30;9.40;;;35.30;95.90;;;;;;4808116;29;20469;-84
2023/08/23 10:18:06;;;;;;;11.30;10.30;;;35.30;96.00;;;;;;4826280;29;20436;-84
2023/08/23 10:20:36;;;;;;;11.90;10.60;;;35.20;96.20;;;;;;4827378;29;20929;-84
2023/08/23 10:23:10;;;;;;;10.27;9.37;;;35.20;96.30;;;;;;4809796;29;20678;-84
2023/08/23 10:25:37;;;;;;;10.20;9.20;;;35.20;96.10;;;;;;4812313;29;20449;-78
2023/08/23 10:28:04;;;;;;;10.70;9.60;;;35.30;95.90;;;;;;4812551;29;20483;-83
2023/08/23 10:30:30;;;;;;;10.23;9.23;;;35.40;95.40;;;;;;4812805;29;20457;-84
2023/08/23 10:33:08;;;;;;;9.87;9.07;;;35.40;94.10;;;;;;4813701;29;20522;-83
2023/08/23 10:35:36;;;;;;;10.43;9.63;;;35.50;93.80;;;;;;4817258;29;20457;-84
2023/08/23 10:38:05;;;;;;;11.43;9.40;;;35.50;93.40;;;;;;4817330;29;20974;-83
2023/08/23 10:40:31;;;;;;;10.70;9.80;;;35.60;93.70;;;;;;4817417;29;20550;-84
2023/08/23 10:42:58;;;;;;;11.27;10.17;;;35.60;94.00;;;;;;4816464;29;20835;-78
2023/08/23 10:45:25;;;;;;;9.77;8.90;;;35.50;92.80;;;;;;4815584;29;21270;-79
2023/08/23 10:47:51;;;;;;;9.93;9.07;;;35.50;93.10;;;;;;4815723;29;20421;-81
2023/08/23 10:50:18;;;;;;;9.80;9.00;;;35.50;93.20;;;;;;4815998;29;20461;-79
2023/08/23 10:52:44;;;;;;;9.83;9.03;;;35.50;93.60;;;;;;4818079;29;20418;-78
2023/08/23 10:55:10;;;;;;;10.13;8.77;;;35.50;93.90;;;;;;4817686;29;20568;-79
2023/08/23 10:57:36;;;;;;;9.80;8.73;;;35.50;94.00;;;;;;4817703;29;20512;-83
2023/08/23 11:00:03;;;;;;;11.03;10.13;;;35.50;93.90;;;;;;4818136;29;20532;-83
2023/08/23 11:02:31;;;;;;;10.47;9.60;;;35.50;93.20;;;;;;4817037;29;20213;-78
2023/08/23 11:04:57;;;;;;;9.43;8.50;;;35.60;93.30;;;;;;4818930;29;20528;-78
2023/08/23 11:07:26;;;;;;;9.20;8.30;;;35.50;93.40;;;;;;4817081;29;20429;-81
2023/08/23 11:09:53;;;;;;;10.53;9.43;;;35.60;92.80;;;;;;4817568;29;20540;-78
2023/08/23 11:12:18;;;;;;;11.50;9.00;;;35.60;92.60;;;;;;4818769;29;20417;-83
2023/08/23 11:14:44;;;;;;;10.13;9.17;;;35.60;91.80;;;;;;4818240;29;20510;-82
2023/08/23 11:17:11;;;;;;;10.37;9.33;;;35.60;91.40;;;;;;4818683;29;20181;-82
2023/08/23 11:19:38;;;;;;;9.37;8.47;;;35.60;91.40;;;;;;4817248;29;20328;-79
2023/08/23 11:22:04;;;;;;;10.33;8.83;;;35.70;92.00;;;;;;4810135;29;20441;-79
2023/08/23 11:24:31;;;;;;;8.67;7.97;;;35.80;91.40;;;;;;4807274;29;20537;-79
2023/08/23 11:26:57;;;;;;;8.50;7.80;;;35.80;91.10;;;;;;4808438;29;20426;-79
2023/08/23 11:29:23;;;;;;;8.83;8.10;;;35.80;90.30;;;;;;4809046;29;20475;-78
2023/08/23 11:31:53;;;;;;;9.80;7.90;;;35.90;90.20;;;;;;4807150;29;20434;-81
2023/08/23 11:34:20;;;;;;;10.67;8.07;;;35.90;91.00;;;;;;4809621;29;20192;-82
2023/08/23 11:36:46;;;;;;;9.17;8.33;;;35.80;91.60;;;;;;4827077;29;20430;-82
2023/08/23 11:39:13;;;;;;;9.17;8.37;;;35.80;91.70;;;;;;4821411;29;20488;-81
2023/08/23 11:41:40;;;;;;;9.53;8.70;;;35.70;92.30;;;;;;4818526;29;21001;-78
2023/08/23 11:44:09;;;;;;;9.80;8.70;;;35.70;92.20;;;;;;4834859;29;20621;-82
2023/08/23 11:46:38;;;;;;;9.47;8.70;;;35.60;92.70;;;;;;4803419;29;20446;-83
2023/08/23 11:49:06;;;;;;;10.47;9.57;;;35.60;92.30;;;;;;4819950;29;20441;-79
2023/08/23 11:51:46;;;;;;;9.77;8.87;;;35.50;93.00;;;;;;4833845;29;20448;-78
2023/08/23 11:54:13;;;;;;;10.67;9.77;;;35.40;93.00;;;;;;4817948;29;20441;-82
2023/08/23 11:56:41;;;;;;;9.30;8.60;;;35.30;93.30;;;;;;4817542;29;20829;-79
2023/08/23 11:59:08;;;;;;;10.20;9.37;;;35.30;93.30;;;;;;4815080;29;20437;-80
2023/08/23 12:01:34;;;;;;;11.70;10.60;;;35.20;93.10;;;;;;4819534;29;20457;-82
2023/08/23 12:04:00;;;;;;;10.40;9.30;;;35.10;92.80;;;;;;4819649;29;20460;-78
2023/08/23 12:06:26;;;;;;;10.20;9.40;;;35.10;93.30;;;;;;4821035;29;20540;-78
2023/08/23 12:08:53;;;;;;;11.90;9.50;;;35.00;93.80;;;;;;4819413;29;20469;-82
2023/08/23 12:11:18;;;;;;;11.23;10.33;;;34.80;93.90;;;;;;4820930;29;20783;-82
2023/08/23 12:13:44;;;;;;;9.83;9.03;;;34.90;93.70;;;;;;4815678;29;20437;-79
2023/08/23 12:16:10;;;;;;;9.73;8.97;;;34.90;93.90;;;;;;4819568;29;20225;-83
2023/08/23 12:18:37;;;;;;;10.40;9.40;;;34.90;94.10;;;;;;4817738;29;20624;-82
2023/08/23 12:21:03;;;;;;;11.67;10.10;;;34.80;94.20;;;;;;4818892;29;20787;-83
2023/08/23 12:23:29;;;;;;;10.90;9.73;;;34.80;94.20;;;;;;4817714;29;20569;-82
2023/08/23 12:25:55;;;;;;;10.90;9.73;;;34.70;94.40;;;;;;4818215;29;20656;-79
2023/08/23 12:28:20;;;;;;;10.53;9.60;;;34.60;94.50;;;;;;4817891;29;20633;-83